Time;durP1;ratioP1;P1;durP2;ratioP2;P2;SDS_P1;SDS_P2;PMS_P1;PMS_P2;Temp;Humidity;BMP_temperature;BMP_pressure;BME280_temperature;BME280_humidity;BME280_pressure;Samples;Min_cycle;Max_cycle;Signal;HPM_P1;HPM_P2
2021/11/06 00:02:13;;;;;;;12.73;7.33;;;8.10;99.90;;;;;;5011983;28;20468;-62
2021/11/06 00:04:40;;;;;;;8.63;6.40;;;8.00;99.90;;;;;;5012476;28;20536;-62
2021/11/06 00:07:07;;;;;;;10.37;6.90;;;7.90;99.90;;;;;;5011692;28;20557;-62
2021/11/06 00:09:34;;;;;;;9.93;6.53;;;7.90;99.90;;;;;;5012472;28;20791;-62
2021/11/06 00:12:00;;;;;;;7.40;5.70;;;7.90;99.90;;;;;;5011993;28;21003;-62
2021/11/06 00:14:27;;;;;;;10.33;7.50;;;7.80;99.90;;;;;;5018366;28;20537;-62
2021/11/06 00:16:54;;;;;;;12.00;6.53;;;7.80;99.90;;;;;;5031382;28;20464;-62
2021/11/06 00:19:21;;;;;;;11.63;6.67;;;7.80;99.90;;;;;;5031988;28;20558;-62
2021/11/06 00:21:48;;;;;;;18.67;7.77;;;7.80;99.90;;;;;;5030969;28;20464;-62
2021/11/06 00:24:15;;;;;;;12.90;7.50;;;7.70;99.90;;;;;;5032045;28;20420;-62
2021/11/06 00:26:42;;;;;;;10.37;7.00;;;7.70;99.90;;;;;;5031063;28;20452;-62
2021/11/06 00:29:09;;;;;;;18.73;8.63;;;7.80;99.90;;;;;;5021578;28;20447;-62
2021/11/06 00:31:36;;;;;;;10.70;6.73;;;7.70;99.90;;;;;;5011789;28;20804;-61
2021/11/06 00:34:05;;;;;;;17.77;9.37;;;7.70;99.90;;;;;;5036555;28;20971;-62
2021/11/06 00:36:32;;;;;;;15.33;9.27;;;7.70;99.90;;;;;;5022491;28;20467;-62
2021/11/06 00:38:59;;;;;;;20.58;9.57;;;7.70;99.90;;;;;;5012191;28;20460;-62
2021/11/06 00:41:26;;;;;;;16.17;8.57;;;7.70;99.90;;;;;;5011435;28;20282;-61
2021/11/06 00:43:54;;;;;;;16.07;8.73;;;7.70;99.90;;;;;;5012053;28;20849;-62
2021/11/06 00:46:21;;;;;;;18.87;9.83;;;7.70;99.90;;;;;;5011145;28;20495;-62
2021/11/06 00:48:48;;;;;;;15.17;10.60;;;7.60;99.90;;;;;;4994814;28;20421;-62
2021/11/06 00:51:15;;;;;;;16.10;10.80;;;7.60;99.90;;;;;;5011731;28;20456;-62
2021/11/06 00:53:43;;;;;;;18.37;9.30;;;7.60;99.90;;;;;;5012221;28;20427;-62
2021/11/06 00:56:10;;;;;;;21.60;10.47;;;7.60;99.90;;;;;;5011713;28;20460;-63
2021/11/06 00:58:36;;;;;;;19.60;10.43;;;7.60;99.90;;;;;;5017667;28;20431;-62
2021/11/06 01:01:04;;;;;;;18.67;10.67;;;7.50;99.90;;;;;;5017884;28;20546;-61
2021/11/06 01:03:30;;;;;;;17.93;10.03;;;7.50;99.90;;;;;;5018471;28;20417;-61
2021/11/06 01:05:58;;;;;;;17.07;11.40;;;7.40;99.90;;;;;;5017597;28;20460;-62
2021/11/06 01:08:24;;;;;;;19.10;9.83;;;7.40;99.90;;;;;;5018256;28;20417;-62
2021/11/06 01:10:51;;;;;;;20.38;9.98;;;7.40;99.90;;;;;;5017658;28;20429;-62
2021/11/06 01:13:19;;;;;;;13.80;9.90;;;7.30;99.90;;;;;;5018552;28;20215;-61
2021/11/06 01:15:46;;;;;;;17.30;10.25;;;7.30;99.90;;;;;;5017992;28;20829;-62
2021/11/06 01:18:13;;;;;;;17.17;11.07;;;7.30;99.90;;;;;;5018246;28;20198;-62
2021/11/06 01:20:40;;;;;;;16.42;10.93;;;7.30;99.90;;;;;;5017540;28;20590;-62
2021/11/06 01:23:08;;;;;;;16.60;9.87;;;7.30;99.90;;;;;;5035691;28;20196;-61
2021/11/06 01:25:36;;;;;;;18.00;10.68;;;7.30;99.90;;;;;;5037314;28;20989;-62
2021/11/06 01:28:03;;;;;;;22.33;10.88;;;7.30;99.90;;;;;;5033432;28;20187;-62
2021/11/06 01:30:30;;;;;;;14.50;8.57;;;7.30;99.90;;;;;;5018197;28;20279;-61
2021/11/06 01:32:57;;;;;;;11.38;8.52;;;7.20;99.90;;;;;;5025412;28;20218;-61
2021/11/06 01:35:24;;;;;;;13.50;8.65;;;7.20;99.90;;;;;;5047927;28;20206;-61
2021/11/06 01:37:58;;;;;;;19.77;10.38;;;7.20;99.90;;;;;;5000348;28;20300;-62
2021/11/06 01:40:27;;;;;;;14.05;8.02;;;7.10;99.90;;;;;;5017997;28;20629;-61
2021/11/06 01:42:55;;;;;;;16.73;9.93;;;7.10;99.90;;;;;;5017266;28;20213;-61
2021/11/06 01:45:23;;;;;;;20.38;10.70;;;7.10;99.90;;;;;;5017790;28;20209;-62
2021/11/06 01:47:51;;;;;;;17.75;10.82;;;7.10;99.90;;;;;;5017250;28;20220;-61
2021/11/06 01:50:20;;;;;;;15.07;9.45;;;7.10;99.90;;;;;;5021054;28;20186;-61
2021/11/06 01:52:47;;;;;;;14.73;9.38;;;7.10;99.90;;;;;;5037239;28;20770;-61
2021/11/06 01:55:15;;;;;;;14.60;10.00;;;7.10;99.90;;;;;;5037504;28;20216;-61
2021/11/06 01:57:44;;;;;;;17.90;9.15;;;7.20;99.90;;;;;;5036914;28;20221;-62
2021/11/06 02:00:15;;;;;;;15.88;9.15;;;7.10;99.90;;;;;;5021097;28;20600;-61
2021/11/06 02:02:43;;;;;;;14.55;9.20;;;7.10;99.90;;;;;;5017470;28;20243;-61
2021/11/06 02:05:11;;;;;;;14.05;9.57;;;7.10;99.90;;;;;;5017577;28;22183;-62
2021/11/06 02:07:38;;;;;;;14.82;8.20;;;7.10;99.90;;;;;;5017124;28;20647;-62
2021/11/06 02:10:06;;;;;;;12.60;8.18;;;7.00;99.90;;;;;;5014186;28;20660;-62
2021/11/06 02:12:33;;;;;;;12.70;9.07;;;7.00;99.90;;;;;;5013675;28;20724;-61
2021/11/06 02:15:01;;;;;;;10.13;7.30;;;7.00;99.90;;;;;;5014657;28;20213;-61
2021/11/06 02:17:28;;;;;;;8.52;6.32;;;6.90;99.90;;;;;;5013770;28;20238;-62
2021/11/06 02:19:55;;;;;;;11.50;6.82;;;6.90;99.90;;;;;;5014670;28;20221;-62
2021/11/06 02:22:23;;;;;;;15.15;7.65;;;6.80;99.90;;;;;;5014302;28;20245;-62
2021/11/06 02:24:50;;;;;;;18.77;8.10;;;6.70;99.90;;;;;;5014694;28;20568;-61
2021/11/06 02:27:21;;;;;;;12.35;7.68;;;6.70;99.90;;;;;;5014008;28;20222;-62
2021/11/06 02:29:48;;;;;;;11.35;7.28;;;6.70;99.90;;;;;;5014727;28;20197;-62
2021/11/06 02:32:15;;;;;;;12.30;7.65;;;6.60;99.90;;;;;;5013601;28;20608;-61
2021/11/06 02:34:42;;;;;;;10.25;8.00;;;6.60;99.90;;;;;;5050707;28;20706;-62
2021/11/06 02:37:09;;;;;;;8.65;7.53;;;6.60;99.90;;;;;;5033332;28;20590;-62
2021/11/06 02:39:36;;;;;;;10.88;7.75;;;6.60;99.90;;;;;;5034157;28;20586;-62
2021/11/06 02:42:06;;;;;;;11.65;8.32;;;6.60;99.90;;;;;;5033325;28;20223;-61
2021/11/06 02:44:34;;;;;;;13.30;9.27;;;6.60;99.90;;;;;;5021201;28;20217;-61
2021/11/06 02:47:01;;;;;;;13.80;7.78;;;6.50;99.90;;;;;;5013654;28;20691;-61
2021/11/06 02:49:28;;;;;;;15.68;7.95;;;6.60;99.90;;;;;;5014261;28;20237;-63
2021/11/06 02:51:55;;;;;;;13.10;8.25;;;6.60;99.90;;;;;;5013321;28;20285;-62
2021/11/06 02:54:22;;;;;;;15.10;8.55;;;6.60;99.90;;;;;;5013772;28;20269;-61
2021/11/06 02:56:49;;;;;;;16.05;8.70;;;6.60;99.90;;;;;;5013213;28;20784;-62
2021/11/06 02:59:16;;;;;;;12.50;8.18;;;6.60;99.90;;;;;;5013599;28;20200;-62
2021/11/06 03:01:43;;;;;;;13.93;9.13;;;6.60;99.90;;;;;;5013408;28;20702;-61
2021/11/06 03:04:12;;;;;;;11.90;8.75;;;6.60;99.90;;;;;;5013679;28;20190;-61
2021/11/06 03:06:40;;;;;;;11.40;9.52;;;6.50;99.90;;;;;;5013021;28;20692;-62
2021/11/06 03:09:08;;;;;;;9.73;7.63;;;6.50;99.90;;;;;;4996399;28;20186;-62
2021/11/06 03:11:36;;;;;;;12.80;9.82;;;6.50;99.90;;;;;;5013068;28;20221;-61
2021/11/06 03:14:05;;;;;;;12.95;9.90;;;6.50;99.90;;;;;;5013578;28;20190;-61
2021/11/06 03:16:35;;;;;;;20.85;11.93;;;6.50;99.90;;;;;;5012677;28;20250;-61
2021/11/06 03:19:02;;;;;;;13.50;9.50;;;6.60;99.90;;;;;;5013451;28;20187;-61
2021/11/06 03:21:29;;;;;;;12.20;9.70;;;6.50;99.90;;;;;;5014703;28;20305;-61
2021/11/06 03:23:56;;;;;;;11.35;9.75;;;6.60;99.90;;;;;;5033059;28;20186;-61
2021/11/06 03:26:23;;;;;;;15.20;10.18;;;6.60;99.90;;;;;;5032155;28;20304;-61
2021/11/06 03:28:50;;;;;;;11.50;9.07;;;6.60;99.90;;;;;;5015453;28;20622;-61
2021/11/06 03:31:17;;;;;;;15.50;10.40;;;6.60;99.90;;;;;;5015055;28;20246;-61
2021/11/06 03:33:44;;;;;;;11.57;8.23;;;6.60;99.90;;;;;;5033772;28;20189;-61
2021/11/06 03:36:11;;;;;;;11.60;8.35;;;6.60;99.90;;;;;;5029858;28;20329;-61
2021/11/06 03:38:38;;;;;;;12.50;9.35;;;6.50;99.90;;;;;;5013037;28;20190;-62
2021/11/06 03:41:05;;;;;;;11.57;8.10;;;6.50;99.90;;;;;;5012380;28;20244;-61
2021/11/06 03:43:32;;;;;;;16.25;10.18;;;6.50;99.90;;;;;;5013086;28;20191;-61
2021/11/06 03:45:59;;;;;;;16.48;8.52;;;6.50;99.90;;;;;;5012231;28;20588;-62
2021/11/06 03:48:26;;;;;;;11.30;8.95;;;6.50;99.90;;;;;;5012916;28;20559;-61
2021/11/06 03:50:53;;;;;;;9.45;7.93;;;6.40;99.90;;;;;;5012124;28;20190;-61
2021/11/06 03:53:20;;;;;;;13.38;9.55;;;6.40;99.90;;;;;;5012867;28;20190;-62
2021/11/06 03:55:47;;;;;;;10.32;8.25;;;6.30;99.90;;;;;;5012421;28;20275;-61
2021/11/06 03:58:14;;;;;;;10.57;8.48;;;6.30;99.90;;;;;;5012745;28;20221;-61
2021/11/06 04:00:41;;;;;;;12.10;9.73;;;6.30;99.90;;;;;;5029045;28;20218;-62
2021/11/06 04:03:08;;;;;;;9.30;7.82;;;6.30;99.90;;;;;;5032399;28;20198;-61
2021/11/06 04:05:35;;;;;;;13.68;9.18;;;6.20;99.90;;;;;;5025750;28;20684;-61
2021/11/06 04:08:02;;;;;;;13.88;9.40;;;6.20;99.90;;;;;;4994831;28;20191;-61
2021/11/06 04:10:29;;;;;;;11.63;9.05;;;6.10;99.90;;;;;;5012707;28;20190;-62
2021/11/06 04:12:55;;;;;;;12.57;8.80;;;6.00;99.90;;;;;;4994652;28;20233;-61
2021/11/06 04:15:22;;;;;;;10.85;8.55;;;6.00;99.90;;;;;;5012636;28;20217;-61
2021/11/06 04:17:50;;;;;;;11.68;7.97;;;6.00;99.90;;;;;;5011728;28;20223;-62
2021/11/06 04:20:16;;;;;;;10.50;8.98;;;6.00;99.90;;;;;;5012462;28;20218;-61
2021/11/06 04:22:43;;;;;;;11.43;8.07;;;6.00;99.90;;;;;;4994343;28;20241;-61
2021/11/06 04:25:11;;;;;;;13.82;8.65;;;6.00;99.90;;;;;;5012529;28;20238;-61
2021/11/06 04:27:37;;;;;;;9.75;7.75;;;6.20;99.90;;;;;;5011436;28;20703;-61
2021/11/06 04:30:05;;;;;;;12.90;9.23;;;6.20;99.90;;;;;;5012279;28;20661;-61
2021/11/06 04:32:32;;;;;;;12.70;8.75;;;6.20;99.90;;;;;;5011105;28;20225;-61
2021/11/06 04:34:59;;;;;;;11.23;8.20;;;6.20;99.90;;;;;;5012107;28;20780;-61
2021/11/06 04:37:25;;;;;;;11.25;8.45;;;6.30;99.90;;;;;;5011369;28;20222;-62
2021/11/06 04:39:52;;;;;;;9.40;6.72;;;6.20;99.90;;;;;;5012214;28;20209;-62
2021/11/06 04:42:20;;;;;;;12.77;7.78;;;6.20;99.90;;;;;;5011601;28;20221;-61
2021/11/06 04:44:47;;;;;;;9.73;6.57;;;6.20;99.90;;;;;;5030260;28;20584;-61
2021/11/06 04:47:13;;;;;;;10.73;6.70;;;6.20;99.90;;;;;;5031012;28;20217;-61
2021/11/06 04:49:42;;;;;;;10.88;8.48;;;6.20;99.90;;;;;;5031627;28;20350;-61
2021/11/06 04:52:09;;;;;;;12.15;7.82;;;6.30;99.90;;;;;;5012605;28;20214;-61
2021/11/06 04:54:36;;;;;;;9.82;6.68;;;6.30;99.90;;;;;;5011875;28;20202;-61
2021/11/06 04:57:03;;;;;;;8.02;5.75;;;6.30;99.90;;;;;;5011273;28;20225;-62
2021/11/06 04:59:29;;;;;;;6.32;5.32;;;6.20;99.90;;;;;;5011954;28;20194;-62
2021/11/06 05:01:57;;;;;;;6.13;4.28;;;6.30;99.90;;;;;;5011462;28;20236;-61
2021/11/06 05:04:24;;;;;;;9.18;5.35;;;6.30;99.90;;;;;;5010489;28;20201;-61
2021/11/06 05:06:51;;;;;;;8.15;5.82;;;6.30;99.90;;;;;;5011296;28;20708;-61
2021/11/06 05:09:19;;;;;;;7.10;4.93;;;6.30;99.90;;;;;;5011689;28;20222;-61
2021/11/06 05:11:46;;;;;;;8.20;5.30;;;6.30;99.90;;;;;;5011383;28;20252;-61
2021/11/06 05:14:13;;;;;;;7.05;5.53;;;6.30;99.90;;;;;;5011741;28;20678;-61
2021/11/06 05:16:40;;;;;;;8.00;4.70;;;6.30;99.90;;;;;;5010909;28;20603;-62
2021/11/06 05:19:07;;;;;;;6.63;4.15;;;6.30;99.90;;;;;;5021543;28;20194;-62
2021/11/06 05:21:37;;;;;;;10.68;4.97;;;6.20;99.90;;;;;;5016839;28;20233;-62
2021/11/06 05:24:05;;;;;;;5.57;4.30;;;6.20;99.90;;;;;;5011984;28;20200;-61
2021/11/06 05:26:34;;;;;;;5.32;4.32;;;6.20;99.90;;;;;;5010779;28;20239;-62
2021/11/06 05:29:04;;;;;;;7.22;4.40;;;6.20;99.90;;;;;;5011694;28;20194;-62
2021/11/06 05:31:32;;;;;;;5.30;4.70;;;6.30;99.90;;;;;;5011342;28;20225;-61
2021/11/06 05:34:00;;;;;;;12.68;4.35;;;6.20;99.90;;;;;;5036666;28;20215;-61
2021/11/06 05:36:27;;;;;;;6.90;4.20;;;6.20;99.90;;;;;;5023819;28;20240;-62
2021/11/06 05:38:55;;;;;;;6.68;3.50;;;6.30;99.90;;;;;;5011743;28;20209;-61
2021/11/06 05:41:23;;;;;;;7.30;3.92;;;6.30;99.90;;;;;;5011031;28;20241;-61
2021/11/06 05:43:52;;;;;;;5.25;3.90;;;6.20;99.90;;;;;;5011708;28;20240;-62
2021/11/06 05:46:19;;;;;;;8.57;4.10;;;6.20;99.90;;;;;;5014470;28;20238;-61
2021/11/06 05:48:46;;;;;;;5.10;3.00;;;6.20;99.90;;;;;;5015359;28;20198;-61
2021/11/06 05:51:31;;;;;;;3.83;3.20;;;6.20;99.90;;;;;;4997168;28;20634;-61
2021/11/06 05:53:58;;;;;;;4.72;3.42;;;6.20;99.90;;;;;;5015217;28;20186;-61
2021/11/06 05:56:25;;;;;;;4.13;2.63;;;6.30;99.90;;;;;;4996447;28;20234;-61
2021/11/06 05:58:52;;;;;;;3.63;2.83;;;6.30;99.90;;;;;;5015234;28;20603;-61
2021/11/06 06:01:21;;;;;;;3.65;2.67;;;6.30;99.90;;;;;;5014659;28;20616;-61
2021/11/06 06:03:48;;;;;;;5.20;2.95;;;6.40;99.90;;;;;;5014799;28;20241;-61
2021/11/06 06:06:15;;;;;;;4.22;3.53;;;6.40;99.90;;;;;;5014326;28;20310;-61
2021/11/06 06:08:43;;;;;;;4.10;2.78;;;6.40;99.90;;;;;;5014685;28;20210;-61
2021/11/06 06:11:10;;;;;;;3.88;2.58;;;6.40;99.90;;;;;;5014612;28;20229;-61
2021/11/06 06:13:38;;;;;;;5.10;3.40;;;6.40;99.90;;;;;;5014703;28;20189;-62
2021/11/06 06:16:05;;;;;;;3.92;2.72;;;6.40;99.90;;;;;;4996406;28;20230;-61
2021/11/06 06:18:32;;;;;;;2.95;2.55;;;6.30;99.90;;;;;;5014548;28;20665;-61
2021/11/06 06:20:59;;;;;;;3.35;2.20;;;6.30;99.90;;;;;;5023070;28;20233;-61
2021/11/06 06:23:26;;;;;;;5.97;2.60;;;6.40;99.90;;;;;;5034189;28;20186;-61
2021/11/06 06:25:55;;;;;;;5.72;2.83;;;6.40;99.90;;;;;;5033653;28;20229;-61
2021/11/06 06:28:22;;;;;;;4.78;2.50;;;6.40;99.90;;;;;;5034108;28;20189;-61
2021/11/06 06:30:49;;;;;;;6.00;2.83;;;6.40;99.90;;;;;;5032193;28;20190;-61
2021/11/06 06:33:16;;;;;;;2.85;2.42;;;6.40;99.90;;;;;;5022756;28;20196;-61
2021/11/06 06:35:43;;;;;;;2.75;2.15;;;6.40;99.90;;;;;;5039342;28;20202;-61
2021/11/06 06:38:11;;;;;;;5.63;2.40;;;6.50;99.90;;;;;;5041036;28;20216;-62
2021/11/06 06:40:38;;;;;;;3.03;1.95;;;6.50;99.90;;;;;;5025672;28;20578;-62
2021/11/06 06:43:05;;;;;;;3.40;1.77;;;6.50;99.90;;;;;;5034079;28;20264;-61
2021/11/06 06:45:32;;;;;;;2.97;2.13;;;6.60;99.90;;;;;;5014203;28;20225;-61
2021/11/06 06:47:59;;;;;;;4.25;1.80;;;6.60;99.90;;;;;;5013425;28;20226;-61
2021/11/06 06:50:27;;;;;;;2.72;2.20;;;6.60;99.90;;;;;;5014069;28;20289;-61
2021/11/06 06:52:54;;;;;;;7.60;2.00;;;6.60;99.90;;;;;;5019690;28;20252;-61
2021/11/06 06:55:21;;;;;;;5.53;2.30;;;6.60;99.90;;;;;;5031447;28;20643;-61
2021/11/06 06:57:48;;;;;;;2.33;2.13;;;6.60;99.90;;;;;;5052852;28;20221;-62
2021/11/06 07:00:16;;;;;;;3.35;2.20;;;6.60;99.90;;;;;;5046607;28;20191;-62
2021/11/06 07:02:43;;;;;;;2.85;1.75;;;6.60;99.90;;;;;;5053165;28;20718;-61
2021/11/06 07:05:11;;;;;;;3.33;2.10;;;6.60;99.90;;;;;;5030031;28;20218;-61
2021/11/06 07:07:37;;;;;;;2.35;2.00;;;6.70;99.90;;;;;;4995681;28;20313;-62
2021/11/06 07:10:05;;;;;;;5.03;2.40;;;6.70;99.90;;;;;;5013760;28;20269;-62
2021/11/06 07:12:33;;;;;;;2.95;1.58;;;6.70;99.90;;;;;;5017670;28;20317;-62
2021/11/06 07:15:01;;;;;;;9.32;1.70;;;6.70;99.90;;;;;;5039038;28;20292;-61
2021/11/06 07:17:33;;;;;;;3.17;2.00;;;6.80;99.90;;;;;;5027461;28;20655;-61
2021/11/06 07:20:00;;;;;;;2.15;1.50;;;6.90;99.90;;;;;;5032134;28;20180;-61
2021/11/06 07:22:27;;;;;;;2.78;1.70;;;6.90;99.90;;;;;;5013096;28;20222;-62
2021/11/06 07:24:54;;;;;;;2.42;1.35;;;6.90;99.90;;;;;;5041165;28;20222;-62
2021/11/06 07:27:22;;;;;;;3.00;1.73;;;7.00;99.90;;;;;;5051101;28;20236;-62
2021/11/06 07:29:49;;;;;;;3.90;2.88;;;7.10;99.90;;;;;;5042954;28;20197;-62
2021/11/06 07:32:16;;;;;;;3.22;2.00;;;7.10;99.90;;;;;;4994984;28;20592;-62
2021/11/06 07:34:43;;;;;;;6.88;1.85;;;7.20;99.90;;;;;;5048809;28;20244;-62
2021/11/06 07:37:10;;;;;;;3.47;2.08;;;7.20;99.90;;;;;;5010776;28;20250;-62
2021/11/06 07:39:37;;;;;;;2.25;1.73;;;7.20;99.90;;;;;;5013423;28;20549;-62
2021/11/06 07:42:04;;;;;;;2.50;1.90;;;7.30;99.90;;;;;;5012404;28;20231;-61
2021/11/06 07:44:31;;;;;;;2.50;1.55;;;7.30;99.90;;;;;;5012626;28;20296;-61
2021/11/06 07:46:59;;;;;;;4.20;2.00;;;7.40;99.90;;;;;;5012358;28;20232;-62
2021/11/06 07:49:26;;;;;;;3.53;2.25;;;7.40;99.90;;;;;;5023647;28;20193;-62
2021/11/06 07:51:58;;;;;;;2.10;1.60;;;7.50;99.90;;;;;;5018405;28;20300;-62
2021/11/06 07:54:26;;;;;;;3.95;1.92;;;7.50;99.90;;;;;;5013096;28;20181;-62
2021/11/06 07:56:54;;;;;;;2.05;1.30;;;7.50;99.90;;;;;;5010953;28;20666;-62
2021/11/06 07:59:21;;;;;;;2.55;1.48;;;7.60;99.90;;;;;;4984690;28;20253;-62
2021/11/06 08:01:48;;;;;;;3.05;2.00;;;7.60;99.90;;;;;;5012241;28;20650;-62
2021/11/06 08:04:15;;;;;;;1.42;1.20;;;7.70;99.90;;;;;;5012678;28;20646;-63
2021/11/06 08:06:42;;;;;;;1.77;1.20;;;7.70;99.90;;;;;;5011361;28;20275;-62
2021/11/06 08:09:10;;;;;;;1.60;1.17;;;7.70;99.90;;;;;;5029563;28;20190;-62
2021/11/06 08:11:36;;;;;;;1.20;1.05;;;7.80;99.90;;;;;;5034166;28;20221;-62
2021/11/06 08:14:03;;;;;;;1.77;1.27;;;7.80;99.90;;;;;;5035817;28;20224;-61
2021/11/06 08:16:30;;;;;;;1.40;0.85;;;7.90;99.90;;;;;;4994407;28;20241;-61
2021/11/06 08:18:57;;;;;;;2.42;1.40;;;7.90;99.90;;;;;;5012441;28;20227;-61
2021/11/06 08:21:24;;;;;;;3.60;1.40;;;7.90;99.90;;;;;;5012025;28;20310;-61
2021/11/06 08:23:51;;;;;;;1.90;1.50;;;7.90;99.90;;;;;;5012311;28;20186;-61
2021/11/06 08:26:18;;;;;;;3.10;1.77;;;8.00;99.90;;;;;;5011651;28;20227;-61
2021/11/06 08:28:45;;;;;;;3.25;1.17;;;8.00;99.90;;;;;;4995039;28;20649;-61
2021/11/06 08:31:12;;;;;;;2.50;1.47;;;8.10;99.90;;;;;;5042881;28;20220;-61
2021/11/06 08:33:39;;;;;;;2.63;1.10;;;8.10;99.90;;;;;;5058874;28;20419;-61
2021/11/06 08:36:06;;;;;;;3.80;1.60;;;8.10;99.90;;;;;;5044251;28;20545;-62
2021/11/06 08:38:34;;;;;;;1.80;0.90;;;8.20;99.90;;;;;;5009048;28;20271;-61
2021/11/06 08:41:01;;;;;;;1.80;0.87;;;8.30;99.90;;;;;;5033706;28;20889;-61
2021/11/06 08:43:29;;;;;;;2.97;1.43;;;8.30;99.90;;;;;;5035954;28;20448;-61
2021/11/06 08:45:56;;;;;;;1.83;1.67;;;8.40;99.90;;;;;;4993905;28;20951;-61
2021/11/06 08:48:23;;;;;;;1.05;0.93;;;8.50;99.90;;;;;;4994637;28;20438;-61
2021/11/06 08:50:51;;;;;;;1.50;1.27;;;8.50;99.90;;;;;;5011201;28;20190;-62
2021/11/06 08:53:18;;;;;;;1.33;0.80;;;8.60;99.90;;;;;;4994533;28;20528;-61
2021/11/06 08:55:45;;;;;;;4.03;1.53;;;8.60;99.90;;;;;;5011333;28;20478;-61
2021/11/06 08:58:12;;;;;;;1.30;1.00;;;8.70;99.90;;;;;;5011990;28;20989;-61
2021/11/06 09:00:42;;;;;;;4.03;2.20;;;8.70;99.90;;;;;;5032538;28;20924;-61
2021/11/06 09:03:18;;;;;;;1.93;1.40;;;8.80;99.90;;;;;;5051578;28;20420;-61
2021/11/06 09:05:51;;;;;;;1.60;0.93;;;8.80;99.90;;;;;;5035778;28;20455;-61
2021/11/06 09:08:30;;;;;;;2.53;1.40;;;8.80;99.90;;;;;;5012046;28;20416;-61
2021/11/06 09:11:02;;;;;;;6.27;1.73;;;8.90;99.90;;;;;;5039259;28;20538;-61
2021/11/06 09:13:30;;;;;;;1.60;1.10;;;9.00;99.90;;;;;;5041438;28;20443;-61
2021/11/06 09:16:06;;;;;;;3.10;1.80;;;9.00;99.90;;;;;;5030976;28;20463;-61
2021/11/06 09:18:42;;;;;;;4.30;1.17;;;9.10;99.90;;;;;;5015570;28;20440;-61
2021/11/06 09:21:11;;;;;;;2.20;0.90;;;9.10;99.90;;;;;;5023933;28;20479;-61
2021/11/06 09:23:39;;;;;;;1.13;1.00;;;9.20;99.90;;;;;;4998464;28;20444;-62
2021/11/06 09:26:09;;;;;;;2.80;1.13;;;9.10;99.90;;;;;;5013633;28;20559;-61
2021/11/06 09:28:42;;;;;;;1.80;0.90;;;9.30;99.90;;;;;;5031905;28;20787;-62
2021/11/06 09:31:11;;;;;;;1.57;1.20;;;9.30;99.90;;;;;;5038032;28;20471;-61
2021/11/06 09:33:39;;;;;;;2.17;1.00;;;9.40;99.90;;;;;;5053493;28;20485;-61
2021/11/06 09:36:07;;;;;;;2.07;1.17;;;9.40;99.90;;;;;;5026306;28;20472;-61
2021/11/06 09:38:34;;;;;;;1.60;1.27;;;9.50;99.90;;;;;;5055371;28;20427;-61
2021/11/06 09:41:04;;;;;;;2.63;1.03;;;9.50;99.90;;;;;;5054407;28;20976;-61
2021/11/06 09:43:32;;;;;;;4.70;1.13;;;9.60;99.90;;;;;;5054738;28;20427;-61
2021/11/06 09:45:59;;;;;;;2.40;1.50;;;9.60;99.90;;;;;;5021179;28;20460;-61
2021/11/06 09:48:29;;;;;;;3.90;1.27;;;9.60;99.90;;;;;;5015222;28;20841;-61
2021/11/06 09:50:58;;;;;;;2.47;1.50;;;9.70;99.90;;;;;;4997189;28;20455;-61
2021/11/06 09:53:29;;;;;;;2.30;1.30;;;9.70;99.90;;;;;;5031448;28;20782;-62
2021/11/06 09:55:56;;;;;;;2.13;1.00;;;9.70;99.90;;;;;;5034149;28;20459;-62
2021/11/06 09:58:24;;;;;;;1.27;1.07;;;9.70;99.90;;;;;;5031923;28;20878;-61
2021/11/06 10:00:51;;;;;;;2.30;1.03;;;9.80;99.90;;;;;;5030095;28;20424;-62
2021/11/06 10:03:18;;;;;;;2.03;0.90;;;9.70;99.90;;;;;;5034642;28;20467;-62
2021/11/06 10:06:15;;;;;;;1.23;0.90;;;9.80;99.90;;;;;;5019764;28;20459;-61
2021/11/06 10:08:44;;;;;;;1.43;1.20;;;9.80;99.90;;;;;;5033563;28;20424;-61
2021/11/06 10:11:31;;;;;;;1.30;1.00;;;9.80;99.90;;;;;;5047632;28;20451;-61
2021/11/06 10:14:08;;;;;;;3.97;1.17;;;9.90;99.90;;;;;;5046549;28;20471;-61
2021/11/06 10:16:37;;;;;;;4.00;1.30;;;9.90;99.90;;;;;;4996703;28;20896;-61
2021/11/06 10:19:10;;;;;;;2.90;1.00;;;10.00;99.90;;;;;;5014705;28;20551;-61
2021/11/06 10:21:42;;;;;;;4.20;1.00;;;10.20;99.90;;;;;;5027925;28;20522;-62
2021/11/06 10:24:11;;;;;;;1.30;0.83;;;10.30;99.90;;;;;;5036395;28;20424;-61
2021/11/06 10:26:39;;;;;;;1.07;1.00;;;10.40;99.90;;;;;;5053577;28;20467;-61
2021/11/06 10:29:12;;;;;;;1.40;1.07;;;10.50;99.90;;;;;;5048456;28;20447;-61
2021/11/06 10:31:54;;;;;;;2.37;0.97;;;10.50;99.90;;;;;;5033066;28;20468;-61
2021/11/06 10:34:25;;;;;;;1.03;0.90;;;10.60;99.90;;;;;;5034393;28;20515;-61
2021/11/06 10:37:12;;;;;;;4.10;1.40;;;10.60;99.90;;;;;;5030623;28;20554;-61
2021/11/06 10:40:11;;;;;;;1.90;1.27;;;10.70;99.90;;;;;;5054241;28;20505;-61
2021/11/06 10:42:55;;;;;;;1.70;1.10;;;10.80;99.90;;;;;;5042117;28;20471;-61
2021/11/06 10:45:27;;;;;;;0.90;0.80;;;10.80;99.90;;;;;;5040415;28;20480;-61
2021/11/06 10:47:57;;;;;;;1.90;0.83;;;10.90;99.90;;;;;;5013481;28;20467;-61
2021/11/06 10:51:02;;;;;;;1.27;1.00;;;10.90;99.90;;;;;;5013111;28;20947;-61
2021/11/06 10:53:54;;;;;;;1.07;0.97;;;10.90;99.90;;;;;;5036570;28;20453;-61
2021/11/06 10:56:28;;;;;;;2.40;1.60;;;10.90;99.90;;;;;;5035065;28;20478;-61
2021/11/06 10:59:05;;;;;;;2.30;1.40;;;10.90;99.90;;;;;;5046169;28;20442;-61
2021/11/06 11:01:33;;;;;;;2.30;1.30;;;10.90;99.90;;;;;;5053216;28;20575;-61
2021/11/06 11:04:06;;;;;;;2.23;1.37;;;11.00;99.90;;;;;;5053700;28;20465;-61
2021/11/06 11:06:37;;;;;;;2.73;1.30;;;11.00;99.90;;;;;;5017117;28;20507;-61
2021/11/06 11:09:25;;;;;;;2.00;1.03;;;11.00;99.90;;;;;;5013965;28;20502;-61
2021/11/06 11:12:00;;;;;;;1.50;0.93;;;11.10;99.90;;;;;;4995923;28;20469;-61
2021/11/06 11:14:32;;;;;;;1.50;1.17;;;11.10;99.90;;;;;;5016110;28;20447;-61
2021/11/06 11:17:01;;;;;;;4.23;1.87;;;11.20;99.90;;;;;;5030844;28;20501;-61
2021/11/06 11:19:36;;;;;;;1.97;1.60;;;11.20;99.90;;;;;;5015935;28;20427;-61
2021/11/06 11:22:04;;;;;;;1.67;1.10;;;11.40;99.90;;;;;;5014697;28;20482;-61
2021/11/06 11:24:31;;;;;;;2.10;1.37;;;11.40;99.90;;;;;;5013653;28;20892;-61
2021/11/06 11:26:59;;;;;;;2.30;1.27;;;11.40;99.90;;;;;;5029180;28;20471;-61
2021/11/06 11:29:34;;;;;;;1.50;1.23;;;11.40;99.90;;;;;;5040207;28;20534;-61
2021/11/06 11:32:02;;;;;;;1.57;0.80;;;11.40;99.90;;;;;;5052569;28;21004;-61
2021/11/06 11:34:29;;;;;;;2.00;1.30;;;11.50;99.90;;;;;;5041193;28;20432;-61
2021/11/06 11:36:58;;;;;;;1.60;1.30;;;11.60;99.90;;;;;;5017966;28;20458;-61
2021/11/06 11:39:26;;;;;;;2.57;1.33;;;11.60;99.90;;;;;;5012972;28;20972;-61
2021/11/06 11:42:32;;;;;;;1.90;0.90;;;11.70;99.90;;;;;;5012613;28;20466;-61
2021/11/06 11:45:10;;;;;;;1.43;1.20;;;11.80;99.90;;;;;;5047197;28;20462;-62
2021/11/06 11:47:53;;;;;;;2.03;1.80;;;11.90;99.90;;;;;;5031680;28;20897;-61
2021/11/06 11:50:30;;;;;;;1.10;0.90;;;12.00;99.90;;;;;;5013005;28;20430;-61
2021/11/06 11:52:59;;;;;;;2.50;0.97;;;12.00;99.90;;;;;;5015925;28;20487;-60
2021/11/06 11:55:33;;;;;;;1.53;1.37;;;11.90;99.90;;;;;;5033682;28;20459;-60
2021/11/06 11:58:10;;;;;;;1.43;1.00;;;11.80;99.90;;;;;;5032397;28;20817;-61
2021/11/06 12:00:44;;;;;;;1.23;0.80;;;11.90;99.90;;;;;;5031164;28;20459;-62
2021/11/06 12:03:11;;;;;;;3.70;1.13;;;12.00;99.90;;;;;;5013010;28;20828;-62
2021/11/06 12:05:43;;;;;;;2.30;1.30;;;12.00;99.90;;;;;;5016188;28;20483;-61
2021/11/06 12:08:14;;;;;;;2.30;0.70;;;12.00;99.90;;;;;;5036365;28;20528;-61
2021/11/06 12:10:46;;;;;;;1.33;0.50;;;11.90;99.90;;;;;;5052511;28;20443;-61
2021/11/06 12:13:31;;;;;;;1.03;0.67;;;11.80;99.90;;;;;;5052344;28;20432;-61
2021/11/06 12:16:11;;;;;;;1.27;0.60;;;11.70;99.90;;;;;;5020280;28;20471;-61
2021/11/06 12:18:43;;;;;;;3.73;0.87;;;12.00;99.90;;;;;;5013109;28;20770;-61
2021/11/06 12:21:30;;;;;;;1.27;0.60;;;12.00;99.90;;;;;;5005048;28;20484;-61
2021/11/06 12:24:10;;;;;;;1.43;0.80;;;12.00;99.90;;;;;;5032311;28;20427;-61
2021/11/06 12:26:59;;;;;;;2.43;1.03;;;12.00;99.90;;;;;;5031654;28;20460;-61
2021/11/06 12:29:31;;;;;;;1.60;1.10;;;12.00;99.90;;;;;;5015856;28;20444;-61
2021/11/06 12:32:48;;;;;;;2.33;1.50;;;12.10;99.90;;;;;;5011830;28;20474;-61
2021/11/06 12:35:40;;;;;;;1.93;1.03;;;12.10;99.90;;;;;;5006850;28;20480;-61
2021/11/06 12:38:08;;;;;;;0.83;0.80;;;12.30;99.90;;;;;;5038087;28;20461;-61
2021/11/06 12:40:52;;;;;;;2.00;1.30;;;12.50;99.90;;;;;;5051853;28;20456;-61
2021/11/06 12:43:27;;;;;;;1.80;0.80;;;12.60;99.90;;;;;;5039979;28;20568;-61
2021/11/06 12:45:58;;;;;;;1.10;0.80;;;12.70;99.90;;;;;;5011437;28;20467;-61
2021/11/06 12:48:40;;;;;;;1.03;0.77;;;12.70;99.90;;;;;;4995360;28;20539;-61
2021/11/06 12:51:11;;;;;;;2.23;0.77;;;12.60;99.90;;;;;;5011373;28;20468;-61
2021/11/06 12:53:42;;;;;;;1.23;0.80;;;12.50;99.90;;;;;;5011710;28;20419;-61
2021/11/06 12:56:36;;;;;;;1.20;0.80;;;12.50;99.90;;;;;;5011244;28;20493;-61
2021/11/06 12:59:03;;;;;;;1.53;1.43;;;12.70;99.90;;;;;;5012269;28;20445;-61
2021/11/06 13:01:31;;;;;;;0.80;0.70;;;12.70;99.90;;;;;;5017448;28;20461;-61
2021/11/06 13:04:01;;;;;;;2.07;0.70;;;12.70;99.90;;;;;;5031504;28;20973;-61